Terminal Aerodrome Forecast
Issued by NWS

Home | Current Version | Previous Version | Text Only | Print | Product List | Glossary On
Versions: 1 2 3 4 5 6 7 8 9 10 11 12
000
FTUS43 KOAX 050522
TAFSNY
TAF
KSNY 050522Z 0506/0606 24012KT P6SM SCT120 BKN250
     FM050900 27012KT P6SM BKN100 BKN200
     FM051700 32028G40KT P6SM BKN120 BKN200
     FM060000 33015G25KT P6SM SCT150=

USA.gov is the U.S. government's official web portal to all federal, state and local government web resources and services.